createdAt,value
2023-03-07T00:00:12.925Z,77.10
2023-03-07T00:03:05.430Z,74.70
2023-03-07T00:05:37.699Z,72.60
2023-03-07T00:08:10.286Z,58.10
2023-03-07T00:10:42.598Z,53.30
2023-03-07T00:13:14.736Z,58.20
2023-03-07T00:15:46.887Z,58.70
2023-03-07T00:18:19.195Z,53.70
2023-03-07T00:20:59.787Z,45.80
2023-03-07T00:23:31.904Z,37.90
2023-03-07T00:26:06.452Z,35.70
2023-03-07T00:28:38.900Z,37.10
2023-03-07T00:31:12.437Z,41.30
2023-03-07T00:33:44.685Z,41.70
2023-03-07T00:36:19.888Z,40.80
2023-03-07T00:41:24.351Z,43.40
2023-03-07T00:43:57.570Z,43.70
2023-03-07T00:46:30.992Z,43.20
2023-03-07T00:49:04.049Z,47.10
2023-03-07T00:51:36.228Z,48.80
2023-03-07T00:54:09.217Z,42.80
2023-03-07T00:56:41.867Z,44.90
2023-03-07T00:59:14.599Z,43.20
2023-03-07T01:01:46.765Z,42.30
2023-03-07T01:04:19.221Z,45.60
2023-03-07T01:06:51.823Z,47.90
2023-03-07T01:09:24.738Z,42.80
2023-03-07T01:11:56.976Z,42.10
2023-03-07T01:14:30.680Z,44.90
2023-03-07T01:17:04.115Z,48.50
2023-03-07T01:19:36.249Z,49.90
2023-03-07T01:22:08.644Z,66.40
2023-03-07T01:24:41.761Z,82.30
2023-03-07T01:27:14.211Z,101.60
2023-03-07T01:29:46.489Z,61.10
2023-03-07T01:32:18.930Z,59.40
2023-03-07T01:34:51.181Z,50.70
2023-03-07T01:37:23.674Z,52.10
2023-03-07T01:39:56.871Z,48.60
2023-03-07T01:42:32.921Z,48.80
2023-03-07T01:45:09.776Z,51.80
2023-03-07T01:47:47.937Z,51.20
2023-03-07T01:50:21.001Z,59.10
2023-03-07T01:52:57.307Z,51.20
2023-03-07T01:55:34.073Z,55.80
2023-03-07T01:58:16.552Z,53.20
2023-03-07T02:00:48.736Z,52.50
2023-03-07T02:03:31.590Z,51.80
2023-03-07T02:06:06.900Z,56.00
2023-03-07T02:08:41.406Z,51.30
2023-03-07T02:11:14.239Z,52.10
2023-03-07T02:13:46.408Z,58.00
2023-03-07T02:16:19.002Z,50.10
2023-03-07T02:18:52.229Z,56.70
2023-03-07T02:21:35.838Z,53.10
2023-03-07T02:24:16.916Z,57.30
2023-03-07T02:26:50.825Z,58.90
2023-03-07T02:29:23.538Z,56.00
2023-03-07T02:31:55.759Z,60.00
2023-03-07T02:34:30.329Z,53.30
2023-03-07T02:37:26.689Z,47.60
2023-03-07T02:40:00.240Z,50.70
2023-03-07T02:42:35.036Z,48.10
2023-03-07T02:45:15.073Z,39.70
2023-03-07T02:47:48.596Z,41.20
2023-03-07T02:50:22.503Z,44.20
2023-03-07T02:52:56.960Z,49.90
2023-03-07T02:55:29.478Z,45.80
2023-03-07T02:58:04.694Z,44.30
2023-03-07T03:00:37.167Z,41.30
2023-03-07T03:03:09.590Z,39.00
2023-03-07T03:05:41.679Z,35.60
2023-03-07T03:08:13.931Z,37.70
2023-03-07T03:10:46.230Z,37.70
2023-03-07T03:13:19.042Z,38.80
2023-03-07T03:15:55.840Z,35.60
2023-03-07T03:18:30.394Z,37.40
2023-03-07T03:21:10.650Z,32.80
2023-03-07T03:23:43.315Z,33.60
2023-03-07T03:26:15.833Z,42.00
2023-03-07T03:28:48.058Z,36.20
2023-03-07T03:31:20.579Z,35.60
2023-03-07T03:33:53.436Z,39.60
2023-03-07T03:36:26.630Z,38.00
2023-03-07T03:39:01.661Z,38.50
2023-03-07T03:41:34.517Z,36.70
2023-03-07T03:44:06.968Z,45.40
2023-03-07T03:46:39.627Z,39.10
2023-03-07T03:49:16.791Z,52.60
2023-03-07T03:51:49.928Z,37.70
2023-03-07T03:54:22.763Z,40.30
2023-03-07T03:56:56.160Z,63.20
2023-03-07T03:59:28.387Z,76.10
2023-03-07T04:02:00.668Z,59.30
2023-03-07T04:04:32.924Z,47.00
2023-03-07T04:07:05.520Z,47.80
2023-03-07T04:09:38.080Z,41.80
2023-03-07T04:12:11.049Z,36.60
2023-03-07T04:14:43.280Z,37.30
2023-03-07T04:17:15.454Z,38.90
2023-03-07T04:19:47.741Z,36.20
2023-03-07T04:22:19.961Z,36.70
2023-03-07T04:24:52.155Z,46.10
2023-03-07T04:27:24.508Z,51.00
2023-03-07T04:29:57.105Z,52.10
2023-03-07T04:32:30.046Z,46.10
2023-03-07T04:35:02.337Z,46.40
2023-03-07T04:37:34.585Z,38.00
2023-03-07T04:40:07.972Z,34.80
2023-03-07T04:42:40.429Z,35.00
2023-03-07T04:45:14.260Z,86.70
2023-03-07T04:47:46.535Z,52.30
2023-03-07T04:50:20.139Z,46.50
2023-03-07T04:52:52.739Z,50.20
2023-03-07T04:55:25.162Z,50.20
2023-03-07T04:57:57.875Z,56.40
2023-03-07T05:00:30.881Z,60.60
2023-03-07T05:03:03.278Z,61.10
2023-03-07T05:05:37.598Z,52.10
2023-03-07T05:08:10.484Z,51.60
2023-03-07T05:10:43.099Z,53.50
2023-03-07T05:13:15.306Z,47.10
2023-03-07T05:15:53.745Z,64.30
2023-03-07T05:18:27.859Z,98.40
2023-03-07T05:21:02.183Z,82.20
2023-03-07T05:23:34.818Z,149.70
2023-03-07T05:26:07.311Z,147.40
2023-03-07T05:28:39.993Z,137.30
2023-03-07T05:31:12.629Z,214.40
2023-03-07T05:33:44.812Z,111.90
2023-03-07T05:36:17.698Z,160.70
2023-03-07T05:38:49.990Z,87.20
2023-03-07T05:41:22.211Z,72.20
2023-03-07T05:43:55.451Z,94.10
2023-03-07T05:46:28.370Z,49.50
2023-03-07T05:49:00.666Z,57.60
2023-03-07T05:51:33.117Z,46.50
2023-03-07T05:54:05.538Z,46.10
2023-03-07T05:56:37.841Z,61.80
2023-03-07T05:59:13.079Z,62.60
2023-03-07T06:01:45.524Z,55.20
2023-03-07T06:04:17.896Z,55.10
2023-03-07T06:06:50.205Z,59.00
2023-03-07T06:09:23.710Z,53.40
2023-03-07T06:11:56.810Z,61.30
2023-03-07T06:14:28.973Z,68.20
2023-03-07T06:17:01.633Z,73.80
2023-03-07T06:19:34.079Z,70.70
2023-03-07T06:22:06.536Z,64.70
2023-03-07T06:24:38.934Z,72.20
2023-03-07T06:27:11.943Z,100.60
2023-03-07T06:29:45.135Z,121.20
2023-03-07T06:32:17.227Z,102.10
2023-03-07T06:34:49.396Z,397.90
2023-03-07T06:37:21.718Z,74.20
2023-03-07T06:39:54.398Z,741.10
2023-03-07T06:42:26.702Z,476.80
2023-03-07T06:44:59.092Z,66.90
2023-03-07T06:47:33.320Z,112.80
2023-03-07T06:50:06.132Z,151.60
2023-03-07T06:52:38.749Z,86.20
2023-03-07T06:55:13.424Z,77.10
2023-03-07T06:57:45.541Z,143.00
2023-03-07T07:00:20.894Z,83.30
2023-03-07T07:02:53.329Z,52.10
2023-03-07T07:05:26.217Z,73.70
2023-03-07T07:07:58.719Z,102.10
2023-03-07T07:10:31.041Z,67.50
2023-03-07T07:13:04.675Z,54.70
2023-03-07T07:15:37.475Z,47.90
2023-03-07T07:18:11.854Z,57.70
2023-03-07T07:20:44.098Z,58.20
2023-03-07T07:23:16.438Z,47.40
2023-03-07T07:25:48.638Z,54.60
2023-03-07T07:28:20.802Z,47.30
2023-03-07T07:30:53.018Z,56.80
2023-03-07T07:33:25.291Z,46.70
2023-03-07T07:35:59.027Z,39.60
2023-03-07T07:38:31.700Z,42.10
2023-03-07T07:41:03.859Z,46.10
2023-03-07T07:43:37.370Z,39.60
2023-03-07T07:46:17.360Z,41.90
2023-03-07T07:48:50.747Z,39.60
2023-03-07T07:51:23.555Z,35.70
2023-03-07T07:53:56.334Z,33.70
2023-03-07T07:56:28.710Z,46.40
2023-03-07T07:59:00.805Z,106.70
2023-03-07T08:01:33.089Z,63.60
2023-03-07T08:04:05.217Z,48.20
2023-03-07T08:06:37.410Z,50.90
2023-03-07T08:09:09.553Z,51.90
2023-03-07T08:11:42.720Z,53.00
2023-03-07T08:14:14.812Z,56.90
2023-03-07T08:16:46.886Z,60.70
2023-03-07T08:19:19.022Z,53.90
2023-03-07T08:21:51.165Z,49.00
2023-03-07T08:24:29.345Z,52.90
2023-03-07T08:27:07.866Z,34.70
2023-03-07T08:29:40.087Z,80.60
2023-03-07T08:32:15.259Z,55.00
2023-03-07T08:34:47.881Z,53.10
2023-03-07T08:37:20.098Z,47.80
2023-03-07T08:39:52.245Z,64.00
2023-03-07T08:42:24.465Z,48.60
2023-03-07T08:44:56.682Z,39.20
2023-03-07T08:47:28.895Z,43.60
2023-03-07T08:50:01.072Z,54.40
2023-03-07T08:52:33.160Z,51.60
2023-03-07T08:55:05.860Z,43.50
2023-03-07T08:57:37.978Z,40.10
2023-03-07T09:00:14.316Z,49.30
2023-03-07T09:02:46.536Z,36.00
2023-03-07T09:05:19.268Z,38.30
2023-03-07T09:07:51.638Z,42.40
2023-03-07T09:10:24.137Z,64.70
2023-03-07T09:12:56.491Z,54.80
2023-03-07T09:15:28.700Z,57.30
2023-03-07T09:18:00.864Z,46.30
2023-03-07T09:20:32.915Z,77.80
2023-03-07T09:23:05.375Z,43.20
2023-03-07T09:25:39.889Z,47.90
2023-03-07T09:28:12.011Z,34.60
2023-03-07T09:30:44.158Z,44.00
2023-03-07T09:33:17.116Z,45.90
2023-03-07T09:35:49.945Z,42.20
2023-03-07T09:38:22.352Z,41.70
2023-03-07T09:40:55.001Z,47.70
2023-03-07T09:43:34.907Z,52.90
2023-03-07T09:46:34.919Z,73.80
2023-03-07T09:49:21.734Z,78.30
2023-03-07T09:51:59.198Z,63.90
2023-03-07T09:54:40.117Z,72.40
2023-03-07T09:57:20.084Z,54.80
2023-03-07T09:59:55.204Z,79.80
2023-03-07T10:02:34.261Z,73.80
2023-03-07T10:05:17.380Z,84.10
2023-03-07T10:07:49.841Z,77.50
2023-03-07T10:10:25.524Z,104.70
2023-03-07T10:13:12.668Z,71.20
2023-03-07T10:15:49.787Z,95.30
2023-03-07T10:18:47.025Z,147.60
2023-03-07T10:21:29.410Z,77.80
2023-03-07T10:24:20.931Z,149.40
2023-03-07T10:27:01.052Z,105.90
2023-03-07T10:29:40.380Z,98.20
2023-03-07T10:32:24.231Z,98.10
2023-03-07T10:35:02.839Z,96.70
2023-03-07T10:37:46.533Z,85.30
2023-03-07T10:40:24.577Z,77.10
2023-03-07T10:42:58.380Z,81.40
2023-03-07T10:45:33.250Z,72.80
2023-03-07T10:48:10.391Z,63.20
2023-03-07T10:50:47.602Z,59.60
2023-03-07T10:53:26.555Z,80.10
2023-03-07T10:56:13.010Z,72.10
2023-03-07T10:59:02.148Z,71.50
2023-03-07T11:01:35.863Z,86.20
2023-03-07T11:04:21.308Z,76.20
2023-03-07T11:09:30.130Z,93.10
2023-03-07T11:12:12.443Z,80.60
2023-03-07T11:14:52.213Z,75.10
2023-03-07T11:17:27.285Z,70.70
2023-03-07T11:22:33.919Z,58.70
2023-03-07T11:25:16.008Z,62.00
2023-03-07T11:27:54.121Z,60.20
2023-03-07T11:30:29.781Z,60.60
2023-03-07T11:33:17.093Z,63.20
2023-03-07T11:35:58.291Z,67.00
2023-03-07T11:38:42.575Z,61.10
2023-03-07T11:41:23.374Z,70.00
2023-03-07T11:44:19.846Z,66.80
2023-03-07T11:47:30.889Z,77.00
2023-03-07T11:50:22.381Z,60.60
2023-03-07T11:53:17.701Z,63.50
2023-03-07T11:56:01.775Z,79.30
2023-03-07T11:59:03.297Z,70.70
2023-03-07T12:01:44.765Z,69.30
2023-03-07T12:04:54.749Z,59.00
2023-03-07T12:07:57.405Z,62.20
2023-03-07T12:10:45.878Z,66.60
2023-03-07T12:13:34.227Z,67.90
2023-03-07T12:16:19.838Z,62.00
2023-03-07T12:19:08.117Z,71.10
2023-03-07T12:21:59.320Z,61.90
2023-03-07T12:24:36.353Z,56.00
2023-03-07T12:27:16.565Z,60.60
2023-03-07T12:29:53.275Z,60.00
2023-03-07T12:32:27.854Z,68.70
2023-03-07T12:35:05.252Z,69.40
2023-03-07T12:37:44.431Z,57.00
2023-03-07T12:40:22.567Z,60.20
2023-03-07T12:43:00.216Z,62.50
2023-03-07T12:45:49.462Z,64.20
2023-03-07T12:48:29.595Z,66.70
2023-03-07T12:51:09.619Z,57.30
2023-03-07T12:53:47.883Z,66.70
2023-03-07T12:56:24.538Z,59.20
2023-03-07T12:59:02.628Z,60.00
2023-03-07T13:01:38.280Z,52.50
2023-03-07T13:04:18.164Z,54.30
2023-03-07T13:06:51.332Z,57.40
2023-03-07T13:09:26.583Z,57.40
2023-03-07T13:12:31.340Z,50.90
2023-03-07T13:15:05.523Z,62.60
2023-03-07T13:17:59.824Z,66.60
2023-03-07T13:20:43.769Z,53.00
2023-03-07T13:23:29.636Z,62.80
2023-03-07T13:26:24.017Z,58.70
2023-03-07T13:28:57.586Z,49.90
2023-03-07T13:31:44.430Z,52.80
2023-03-07T13:34:51.657Z,67.30
2023-03-07T13:37:53.993Z,62.10
2023-03-07T13:40:53.825Z,55.30
2023-03-07T13:44:00.196Z,51.70
2023-03-07T13:46:54.400Z,60.90
2023-03-07T13:49:47.147Z,54.30
2023-03-07T13:52:31.212Z,46.90
2023-03-07T13:55:06.121Z,43.50
2023-03-07T13:57:44.101Z,53.80
2023-03-07T14:00:38.543Z,55.40
2023-03-07T14:03:28.157Z,62.70
2023-03-07T14:06:04.713Z,57.40
2023-03-07T14:08:37.229Z,53.40
2023-03-07T14:11:20.755Z,52.60
2023-03-07T14:14:17.164Z,61.40
2023-03-07T14:16:59.398Z,58.30
2023-03-07T14:19:49.234Z,76.60
2023-03-07T14:22:36.685Z,99.40
2023-03-07T14:25:19.226Z,74.70
2023-03-07T14:27:56.842Z,75.70
2023-03-07T14:30:31.584Z,64.20
2023-03-07T14:33:04.178Z,55.10
2023-03-07T14:35:39.349Z,67.20
2023-03-07T14:38:22.172Z,60.80
2023-03-07T14:41:12.169Z,54.50
2023-03-07T14:43:56.653Z,51.40
2023-03-07T14:46:40.221Z,55.50
2023-03-07T14:49:23.950Z,73.30
2023-03-07T14:51:56.317Z,51.50
2023-03-07T14:54:35.120Z,55.90
2023-03-07T14:57:16.666Z,73.40
2023-03-07T15:00:20.154Z,107.40
2023-03-07T15:02:54.703Z,57.20
2023-03-07T15:05:30.613Z,55.20
2023-03-07T15:08:02.829Z,50.20
2023-03-07T15:10:42.134Z,81.30
2023-03-07T15:13:24.007Z,54.40
2023-03-07T15:16:00.205Z,56.80
2023-03-07T15:18:36.981Z,50.40
2023-03-07T15:21:17.290Z,50.20
2023-03-07T15:23:56.397Z,55.00
2023-03-07T15:26:30.405Z,50.10
2023-03-07T15:29:08.898Z,68.20
2023-03-07T15:31:54.275Z,61.10
2023-03-07T15:37:22.515Z,53.00
2023-03-07T15:40:02.861Z,59.20
2023-03-07T15:42:35.667Z,53.30
2023-03-07T15:45:22.654Z,44.20
2023-03-07T15:47:55.068Z,45.30
2023-03-07T15:50:29.886Z,40.20
2023-03-07T15:53:09.179Z,39.20
2023-03-07T15:55:56.937Z,36.70
2023-03-07T15:58:30.363Z,35.60
2023-03-07T16:01:18.957Z,43.30
2023-03-07T16:03:56.594Z,35.70
2023-03-07T16:06:42.598Z,33.80
2023-03-07T16:09:16.562Z,40.40
2023-03-07T16:11:49.755Z,61.30
2023-03-07T16:14:26.551Z,42.90
2023-03-07T16:17:01.340Z,36.30
2023-03-07T16:19:33.884Z,31.10
2023-03-07T16:22:10.814Z,36.40
2023-03-07T16:24:43.162Z,38.90
2023-03-07T16:27:18.891Z,37.30
2023-03-07T16:29:51.668Z,33.40
2023-03-07T16:32:24.952Z,30.70
2023-03-07T16:34:57.158Z,32.30
2023-03-07T16:37:29.976Z,39.20
2023-03-07T16:40:02.258Z,56.20
2023-03-07T16:42:35.275Z,73.40
2023-03-07T16:45:12.943Z,66.90
2023-03-07T16:47:45.077Z,68.20
2023-03-07T16:50:20.670Z,32.80
2023-03-07T16:52:52.859Z,31.50
2023-03-07T16:55:25.891Z,29.50
2023-03-07T16:58:01.724Z,34.60
2023-03-07T17:00:34.912Z,32.90
2023-03-07T17:03:07.040Z,31.30
2023-03-07T17:05:39.611Z,37.00
2023-03-07T17:08:11.770Z,45.20
2023-03-07T17:10:44.929Z,44.30
2023-03-07T17:13:19.899Z,40.50
2023-03-07T17:18:23.415Z,36.20
2023-03-07T17:20:55.455Z,29.60
2023-03-07T17:23:27.790Z,31.70
2023-03-07T17:26:00.111Z,42.00
2023-03-07T17:28:32.413Z,31.50
2023-03-07T17:31:04.872Z,33.20
2023-03-07T17:33:36.998Z,34.20
2023-03-07T17:36:12.509Z,31.10
2023-03-07T17:38:44.997Z,37.20
2023-03-07T17:41:17.779Z,42.40
2023-03-07T17:43:49.884Z,38.10
2023-03-07T17:46:24.489Z,33.10
2023-03-07T17:48:57.249Z,36.90
2023-03-07T17:51:29.883Z,50.30
2023-03-07T17:54:02.382Z,43.20
2023-03-07T17:56:34.536Z,31.40
2023-03-07T17:59:06.795Z,41.50
2023-03-07T18:01:40.116Z,56.70
2023-03-07T18:04:12.544Z,40.50
2023-03-07T18:06:44.614Z,31.00
2023-03-07T18:09:18.819Z,30.00
2023-03-07T18:11:51.225Z,28.20
2023-03-07T18:14:23.410Z,28.10
2023-03-07T18:16:56.092Z,29.10
2023-03-07T18:19:28.492Z,27.20
2023-03-07T18:22:00.896Z,29.40
2023-03-07T18:24:33.088Z,27.10
2023-03-07T18:27:08.580Z,27.50
2023-03-07T18:29:40.749Z,33.30
2023-03-07T18:32:13.431Z,27.80
2023-03-07T18:34:46.797Z,27.80
2023-03-07T18:37:19.121Z,29.10
2023-03-07T18:39:51.274Z,26.60
2023-03-07T18:42:23.492Z,23.30
2023-03-07T18:44:55.889Z,28.20
2023-03-07T18:47:28.085Z,36.30
2023-03-07T18:50:00.414Z,28.00
2023-03-07T18:52:32.506Z,29.00
2023-03-07T18:55:04.886Z,84.70
2023-03-07T18:57:37.064Z,96.20
2023-03-07T19:00:13.453Z,68.80
2023-03-07T19:02:45.635Z,52.00
2023-03-07T19:05:18.238Z,159.90
2023-03-07T19:07:50.415Z,114.40
2023-03-07T19:10:22.759Z,138.80
2023-03-07T19:12:54.959Z,291.70
2023-03-07T19:15:27.191Z,127.90
2023-03-07T19:17:59.397Z,167.50
2023-03-07T19:20:31.662Z,284.60
2023-03-07T19:23:03.862Z,204.70
2023-03-07T19:25:38.609Z,127.80
2023-03-07T19:28:10.696Z,349.70
2023-03-07T19:30:42.812Z,326.00
2023-03-07T19:33:14.961Z,226.80
2023-03-07T19:35:47.178Z,312.80
2023-03-07T19:38:19.707Z,416.70
2023-03-07T19:40:52.113Z,315.60
2023-03-07T19:43:24.355Z,285.10
2023-03-07T19:45:56.989Z,343.60
2023-03-07T19:48:29.465Z,346.00
2023-03-07T19:51:01.627Z,281.80
2023-03-07T19:53:33.840Z,407.50
2023-03-07T19:56:13.777Z,163.30
2023-03-07T19:58:45.910Z,219.30
2023-03-07T20:01:19.719Z,151.90
2023-03-07T20:03:52.707Z,215.00
2023-03-07T20:06:28.481Z,325.40
2023-03-07T20:09:01.794Z,239.00
2023-03-07T20:11:36.888Z,155.70
2023-03-07T20:16:40.682Z,92.00
2023-03-07T20:19:14.287Z,148.50
2023-03-07T20:21:49.953Z,168.30
2023-03-07T20:24:22.311Z,203.60
2023-03-07T20:26:54.429Z,70.80
2023-03-07T20:29:26.576Z,56.20
2023-03-07T20:31:58.625Z,32.80
2023-03-07T20:34:30.754Z,38.20
2023-03-07T20:37:03.604Z,34.40
2023-03-07T20:39:35.756Z,48.70
2023-03-07T20:42:08.417Z,47.30
2023-03-07T20:44:40.727Z,23.10
2023-03-07T20:47:12.902Z,33.90
2023-03-07T20:49:45.029Z,24.20
2023-03-07T20:52:17.190Z,19.90
2023-03-07T20:54:49.317Z,21.80
2023-03-07T20:57:21.479Z,21.10
2023-03-07T20:59:53.645Z,25.00
2023-03-07T21:02:25.775Z,27.80
2023-03-07T21:04:58.032Z,32.20
2023-03-07T21:07:30.207Z,32.50
2023-03-07T21:10:02.396Z,31.40
2023-03-07T21:12:36.031Z,32.80
2023-03-07T21:15:10.874Z,29.40
2023-03-07T21:17:43.106Z,30.10
2023-03-07T21:20:15.881Z,34.80
2023-03-07T21:22:48.076Z,34.80
2023-03-07T21:25:20.349Z,22.40
2023-03-07T21:27:52.589Z,25.50
2023-03-07T21:30:24.657Z,33.80
2023-03-07T21:32:59.521Z,31.10
2023-03-07T21:35:32.369Z,28.00
2023-03-07T21:38:04.694Z,14.70
2023-03-07T21:40:36.916Z,21.70
2023-03-07T21:43:09.170Z,26.30
2023-03-07T21:45:41.349Z,23.90
2023-03-07T21:48:13.721Z,15.60
2023-03-07T21:50:46.929Z,13.60
2023-03-07T21:53:19.266Z,11.80
2023-03-07T21:55:57.094Z,10.50
2023-03-07T21:58:30.585Z,8.90
2023-03-07T22:01:09.757Z,11.70
2023-03-07T22:03:42.967Z,11.00
2023-03-07T22:06:16.877Z,13.00
2023-03-07T22:08:49.220Z,12.90
2023-03-07T22:11:21.794Z,15.10
2023-03-07T22:13:54.038Z,15.70
2023-03-07T22:16:26.167Z,30.00
2023-03-07T22:18:58.777Z,10.90
2023-03-07T22:21:30.906Z,11.70
2023-03-07T22:24:03.101Z,10.90
2023-03-07T22:26:35.674Z,14.70
2023-03-07T22:29:07.892Z,11.80
2023-03-07T22:31:40.184Z,9.10
2023-03-07T22:34:12.358Z,10.90
2023-03-07T22:36:44.475Z,10.30
2023-03-07T22:39:16.657Z,13.10
2023-03-07T22:41:48.784Z,10.40
2023-03-07T22:44:21.027Z,13.90
2023-03-07T22:46:53.686Z,9.10
2023-03-07T22:49:26.821Z,10.80
2023-03-07T22:51:59.120Z,12.20
2023-03-07T22:54:31.344Z,12.30
2023-03-07T22:57:03.544Z,218.60
2023-03-07T22:59:35.997Z,380.80
2023-03-07T23:02:08.462Z,114.70
2023-03-07T23:04:40.719Z,28.00
2023-03-07T23:07:13.235Z,120.20
2023-03-07T23:09:45.808Z,27.90
2023-03-07T23:12:17.979Z,16.70
2023-03-07T23:14:50.137Z,87.60
2023-03-07T23:17:22.571Z,94.80
2023-03-07T23:19:55.280Z,25.70
2023-03-07T23:22:27.581Z,45.30
2023-03-07T23:24:59.817Z,49.30
2023-03-07T23:27:32.281Z,27.50
2023-03-07T23:30:04.691Z,172.20
2023-03-07T23:32:36.825Z,200.20
2023-03-07T23:35:11.442Z,259.10
2023-03-07T23:37:43.553Z,98.20
2023-03-07T23:40:16.705Z,55.80
2023-03-07T23:42:49.022Z,65.20
2023-03-07T23:45:22.326Z,17.90
2023-03-07T23:47:54.634Z,11.90
2023-03-07T23:50:27.107Z,11.90
2023-03-07T23:52:59.203Z,11.20
2023-03-07T23:55:31.392Z,10.80
2023-03-07T23:58:03.435Z,9.70
